Rio Vista Municipal (O88)
Rio Vista, CA
Field Elevation: 22
Lat: 38°11.60N  Long: 121°42.22W
CTAF/Unicom Freq: 122.7250
   
     For Weather-by-Phone, call (707) 374-5396
Weather Advisories
2017-03-30   18:23 Z
Altimeter 30.10" Hg
Wind 290° @ 11 KT
Gusts 18 KT
Visibility 10 SM
Ceiling CLR
Temperature 17° C (63° F)
Dewpoint 2° C (36° F)
Relative Humidity 39%
Density Altitude --
Condensation Altitude 7,200 feet
Wind and Runways
Indicated Runway = 25
Headwind = 8 kt
Crosswind = 7 kt
History
 
 
 
More Info
All DigiWx sites map
NOAA Forecast
 
Airport IQ 5010
(DUC) Stack Farm
(CA37) Dominican
 
about DigiWx
 
FAA Disclaimer: The data displayed is for advisory purposes only and is not to be used for flight planning or operations. For official data, please call (707) 374-5396 to hear the current automated AWOS voice message.
  METAR O88 301823Z AUTO 29011G18KT VIS 10 SM CLR 17/02 A3010